This is the latest recevied weather packets stored in our database for station/object IU1INZ-13. If no packets are shown the sender has not sent any weather packets the latest 10 day(s).
| Time | Temp. | Humidity | Pressure | Rain* | Wind** | Luminosity | Snow |
|---|---|---|---|---|---|---|---|
| 1777604432 | 12.22° C | 68% | 1026.3 hPa | 0 mm | - | - | - |
| 1777603534 | 12.22° C | 68% | 1026.3 hPa | 0 mm | - | - | - |
| 1777602633 | 12.22° C | 68% | 1026.3 hPa | 0 mm | - | - | - |
| 1777601733 | 12.22° C | 69% | 1026.2 hPa | 0 mm | - | - | - |
| 1777600856 | 12.22° C | 69% | 1026.1 hPa | 0 mm | - | - | - |
| 1777599937 | 12.22° C | 71% | 1025.9 hPa | 0 mm | - | - | - |
| 1777599037 | 11.67° C | 73% | 1025.9 hPa | 0 mm | - | - | - |
| 1777598137 | 10.56° C | 78% | 1025.8 hPa | 0 mm | - | - | - |
| 1777597233 | 10.56° C | 79% | 1025.8 hPa | 0 mm | - | - | - |
| 1777596340 | 10.56° C | 79% | 1025.7 hPa | 0 mm | - | - | - |
| 1777595438 | 10.56° C | 79% | 1025.6 hPa | 0 mm | - | - | - |
| 1777594534 | 10.56° C | 80% | 1025.5 hPa | 0 mm | - | - | - |
| 1777593639 | 11.11° C | 78% | 1025.5 hPa | 0 mm | - | - | - |
| 1777592742 | 11.67° C | 76% | 1025.5 hPa | 0 mm | - | - | - |
| 1777591833 | 11.67° C | 80% | 1025.4 hPa | 0 mm | - | - | - |
| 1777590939 | 11.11° C | 80% | 1025.3 hPa | 0 mm | - | - | - |
| 1777590036 | 11.67° C | 79% | 1025.3 hPa | 0 mm | - | - | - |
| 1777589134 | 12.22° C | 77% | 1025.2 hPa | 0 mm | - | - | - |
| 1777588246 | 12.22° C | 76% | 1025.2 hPa | 0 mm | - | - | - |
| 1777587361 | 12.22° C | 76% | 1025.2 hPa | 0 mm | - | - | - |
| 1777586440 | 12.78° C | 75% | 1025.2 hPa | 0 mm | - | - | - |
| 1777585547 | 13.33° C | 74% | 1025.2 hPa | 0 mm | - | - | - |
| 1777584632 | 13.89° C | 73% | 1025.1 hPa | 0 mm | - | - | - |
| 1777583732 | 13.89° C | 71% | 1025.1 hPa | 0 mm | - | - | - |
| 1777582845 | 14.44° C | 70% | 1025 hPa | 0 mm | - | - | - |
* Rain latest hour (hover to see other rain measurements)
** Current wind speed in m/s (hover to see current wind gust speed)